Springdale, Connecticut
Current Conditions -  °F | °C
As of 6:56 PM on Sunday 25 Jan 2015 (Local Time) from KHPN Reporting Station
Clear Clear  
Wind Chill: -4°   Ceiling: Unl
Heat Index: -1°   Visibility: 10mi
Dew Point: -12°   Wind: 6mph
Humidity: 43%   Direction: 310°NW
Pressure: 29.89"   Gusts: NA
Location:  41.1005°N, 73.521°W
Report Text: KHPN 252356Z 31005KT 10SM CLR M01/M12 A2989 RMK AO2 SLP131 T10111122 10028 21011 53032 $
Loading
Personal Weather Stations






























Interactive Weather Map New forecast layout! Learn more

10-Day Weather Forecast

Advertisements
Track Severe Weather on mobile